METAR Data
IDs: Format: Raw Decoded Include TAF

Data at: 0204 UTC 01 Mar 2021

UCFM 010130Z 19002MPS 3400 1300E R08/P1500N BR NSC M04/M05 Q1019 R08/1///95 NOSIG